KAWO/AWO METAR and TAF weather

Enter ICAO airport designator
Station Type Date Time Source
KAWO METAR 2022/12/04 05:56 UTC NOAA

KAWO 040556Z AUTO 00000KT 10SM CLR M03/M04 A3017 RMK AO2 SLP221 T10331044 10028 21044 56000 FZRANO


Station Type Date Time Source
KAWO Decoded METAR 2022/12/04 05:56 UTC NOAA

Arlington Municipal, WA, United States (KAWO) 48-10N 122-10W
Dec 04, 2022 - 12:56 AM EST / 2022.12.04 0556 UTC
Wind: Calm:0
Visibility: 10 mile(s):0
Sky conditions: clear
Temperature: 26.1 F (-3.3 C)
Dew Point: 24.1 F (-4.4 C)
Relative Humidity: 92%
Pressure (altimeter): 30.17 in. Hg (1021 hPa)
Pressure tendency: 0.00 inches (0.0 hPa) lower than three hours ago
ob: KAWO 040556Z AUTO 00000KT 10SM CLR M03/M04 A3017 RMK AO2 SLP221 T10331044 10028 21044 56000 FZRANO
cycle: 6

Station Type Date Time Source
KAWO TAF UTC NOAA

Error!

Example: see airport list